createdAt,value
2023-01-21T00:00:03.037Z,27.50
2023-01-21T00:01:03.004Z,27.30
2023-01-21T00:02:03.031Z,28.70
2023-01-21T00:03:03.065Z,28.80
2023-01-21T00:04:02.957Z,28.40
2023-01-21T00:05:02.956Z,29.30
2023-01-21T00:06:02.955Z,28.50
2023-01-21T00:07:02.927Z,26.50
2023-01-21T00:08:03.006Z,25.10
2023-01-21T00:09:02.897Z,28.30
2023-01-21T00:10:02.909Z,27.20
2023-01-21T00:11:02.886Z,27.60
2023-01-21T00:12:02.860Z,26.90
2023-01-21T00:13:02.851Z,25.40
2023-01-21T00:14:02.840Z,26.10
2023-01-21T00:15:02.822Z,28.90
2023-01-21T00:16:02.895Z,26.10
2023-01-21T00:17:02.792Z,26.10
2023-01-21T00:18:02.812Z,25.90
2023-01-21T00:19:02.772Z,27.70
2023-01-21T00:20:02.764Z,26.90
2023-01-21T00:21:02.764Z,28.40
2023-01-21T00:22:02.744Z,27.80
2023-01-21T00:23:02.739Z,28.30
2023-01-21T00:24:02.714Z,26.40
2023-01-21T00:25:02.690Z,25.90
2023-01-21T00:26:02.715Z,27.40
2023-01-21T00:27:02.675Z,26.80
2023-01-21T00:28:02.685Z,27.20
2023-01-21T00:29:02.644Z,26.90
2023-01-21T00:30:02.635Z,24.90
2023-01-21T00:31:02.908Z,24.70
2023-01-21T00:32:02.610Z,25.20
2023-01-21T00:33:02.596Z,26.80
2023-01-21T00:34:02.605Z,26.20
2023-01-21T00:35:02.571Z,26.10
2023-01-21T00:36:02.568Z,25.10
2023-01-21T00:37:02.548Z,26.30
2023-01-21T00:38:02.531Z,25.30
2023-01-21T00:39:02.515Z,25.40
2023-01-21T00:40:02.517Z,26.30
2023-01-21T00:41:02.504Z,25.30
2023-01-21T00:42:02.484Z,24.30
2023-01-21T00:43:02.474Z,24.50
2023-01-21T00:44:02.465Z,25.10
2023-01-21T00:45:02.447Z,25.50
2023-01-21T00:46:02.556Z,25.80
2023-01-21T00:47:02.426Z,26.40
2023-01-21T00:48:02.407Z,25.00
2023-01-21T00:49:02.392Z,28.40
2023-01-21T00:50:02.410Z,28.80
2023-01-21T00:51:02.403Z,25.20
2023-01-21T00:52:02.355Z,27.50
2023-01-21T00:53:02.348Z,28.60
2023-01-21T00:54:02.332Z,25.00
2023-01-21T00:55:02.316Z,26.10
2023-01-21T00:56:02.331Z,28.80
2023-01-21T00:57:02.293Z,25.90
2023-01-21T00:58:02.281Z,26.90
2023-01-21T00:59:02.269Z,25.20
2023-01-21T01:00:02.257Z,24.00
2023-01-21T01:01:02.266Z,26.10
2023-01-21T01:02:02.233Z,24.50
2023-01-21T01:03:02.278Z,23.60
2023-01-21T01:04:02.206Z,24.40
2023-01-21T01:05:02.189Z,23.70
2023-01-21T01:06:02.235Z,24.70
2023-01-21T01:07:02.169Z,23.40
2023-01-21T01:08:02.156Z,25.30
2023-01-21T01:09:02.162Z,24.40
2023-01-21T01:10:02.149Z,26.30
2023-01-21T01:11:02.157Z,26.40
2023-01-21T01:12:02.123Z,24.90
2023-01-21T01:13:02.100Z,24.50
2023-01-21T01:14:02.079Z,23.50
2023-01-21T01:15:02.070Z,24.40
2023-01-21T01:16:02.101Z,23.10
2023-01-21T01:17:02.055Z,25.00
2023-01-21T01:18:02.029Z,23.50
2023-01-21T01:19:02.013Z,23.40
2023-01-21T01:20:02.001Z,25.00
2023-01-21T01:21:01.989Z,25.00
2023-01-21T01:22:02.024Z,24.60
2023-01-21T01:23:01.963Z,23.60
2023-01-21T01:24:01.954Z,24.70
2023-01-21T01:25:01.940Z,26.60
2023-01-21T01:26:01.925Z,25.60
2023-01-21T01:27:01.925Z,26.10
2023-01-21T01:28:01.902Z,28.10
2023-01-21T01:29:01.885Z,24.80
2023-01-21T01:30:01.873Z,25.10
2023-01-21T01:31:01.949Z,27.60
2023-01-21T01:32:01.863Z,27.90
2023-01-21T01:33:01.832Z,26.60
2023-01-21T01:34:01.865Z,30.00
2023-01-21T01:35:01.812Z,29.10
2023-01-21T01:36:01.801Z,30.60
2023-01-21T01:37:01.799Z,28.60
2023-01-21T01:38:01.799Z,28.60
2023-01-21T01:39:01.762Z,28.00
2023-01-21T01:40:01.749Z,29.40
2023-01-21T01:41:01.748Z,30.80
2023-01-21T01:42:01.739Z,37.10
2023-01-21T01:43:01.707Z,34.40
2023-01-21T01:44:11.113Z,34.40
2023-01-21T01:45:01.718Z,32.80
2023-01-21T01:46:01.766Z,30.20
2023-01-21T01:47:01.683Z,30.10
2023-01-21T01:48:01.659Z,33.10
2023-01-21T01:49:01.650Z,33.00
2023-01-21T01:50:01.648Z,31.30
2023-01-21T01:51:01.680Z,29.00
2023-01-21T01:52:01.625Z,31.40
2023-01-21T01:53:01.598Z,30.40
2023-01-21T01:54:01.606Z,32.50
2023-01-21T01:55:01.568Z,29.90
2023-01-21T01:56:01.548Z,30.00
2023-01-21T01:57:01.582Z,29.20
2023-01-21T01:58:01.521Z,28.40
2023-01-21T01:59:01.555Z,31.50
2023-01-21T02:00:01.541Z,29.30
2023-01-21T02:01:01.504Z,30.60
2023-01-21T02:02:01.594Z,30.10
2023-01-21T02:03:01.575Z,27.40
2023-01-21T02:04:01.459Z,29.40
2023-01-21T02:05:01.433Z,29.00
2023-01-21T02:06:01.445Z,28.20
2023-01-21T02:07:01.446Z,27.30
2023-01-21T02:08:01.440Z,24.50
2023-01-21T02:09:01.376Z,27.40
2023-01-21T02:10:01.404Z,25.90
2023-01-21T02:11:01.367Z,25.10
2023-01-21T02:12:01.390Z,26.90
2023-01-21T02:13:01.338Z,27.80
2023-01-21T02:14:01.316Z,28.10
2023-01-21T02:15:01.318Z,30.20
2023-01-21T02:16:01.406Z,29.10
2023-01-21T02:17:01.316Z,26.70
2023-01-21T02:18:01.274Z,29.20
2023-01-21T02:19:01.260Z,28.80
2023-01-21T02:20:01.248Z,27.70
2023-01-21T02:21:01.230Z,25.70
2023-01-21T02:22:01.233Z,23.80
2023-01-21T02:23:01.214Z,24.70
2023-01-21T02:24:01.197Z,25.70
2023-01-21T02:25:01.180Z,23.30
2023-01-21T02:26:01.191Z,22.20
2023-01-21T02:27:01.173Z,24.00
2023-01-21T02:28:01.148Z,25.80
2023-01-21T02:29:01.140Z,25.70
2023-01-21T02:30:01.123Z,27.10
2023-01-21T02:31:01.211Z,23.50
2023-01-21T02:32:01.122Z,22.80
2023-01-21T02:33:01.103Z,23.30
2023-01-21T02:34:01.084Z,24.70
2023-01-21T02:35:01.070Z,24.70
2023-01-21T02:36:01.049Z,23.80
2023-01-21T02:37:01.037Z,24.20
2023-01-21T02:38:01.042Z,22.10
2023-01-21T02:39:01.010Z,23.20
2023-01-21T02:40:01.022Z,25.00
2023-01-21T02:41:00.992Z,23.20
2023-01-21T02:42:00.998Z,22.70
2023-01-21T02:43:00.976Z,24.10
2023-01-21T02:44:00.944Z,24.40
2023-01-21T02:45:00.942Z,22.00
2023-01-21T02:46:00.929Z,20.80
2023-01-21T02:47:00.915Z,21.90
2023-01-21T02:48:00.927Z,22.10
2023-01-21T02:49:00.891Z,21.40
2023-01-21T02:50:00.890Z,21.50
2023-01-21T02:51:00.888Z,23.50
2023-01-21T02:52:00.863Z,22.10
2023-01-21T02:53:00.861Z,24.90
2023-01-21T02:54:00.834Z,22.00
2023-01-21T02:55:00.842Z,22.60
2023-01-21T02:56:00.805Z,20.60
2023-01-21T02:57:00.788Z,22.10
2023-01-21T02:58:00.814Z,20.60
2023-01-21T02:59:00.766Z,22.10
2023-01-21T03:00:00.749Z,20.80
2023-01-21T03:01:00.781Z,21.80
2023-01-21T03:02:00.804Z,20.20
2023-01-21T03:03:00.743Z,21.70
2023-01-21T03:04:00.708Z,22.30
2023-01-21T03:05:00.693Z,23.00
2023-01-21T03:06:00.682Z,21.70
2023-01-21T03:07:00.684Z,22.30
2023-01-21T03:08:00.667Z,20.60
2023-01-21T03:09:00.640Z,20.80
2023-01-21T03:10:00.637Z,21.50
2023-01-21T03:11:00.623Z,23.20
2023-01-21T03:12:00.608Z,22.10
2023-01-21T03:13:00.626Z,22.30
2023-01-21T03:14:00.604Z,24.40
2023-01-21T03:15:00.569Z,24.30
2023-01-21T03:16:00.606Z,24.30
2023-01-21T03:17:00.545Z,24.60
2023-01-21T03:18:00.551Z,25.10
2023-01-21T03:19:00.519Z,25.10
2023-01-21T03:20:00.519Z,26.80
2023-01-21T03:21:00.497Z,24.20
2023-01-21T03:22:00.481Z,26.40
2023-01-21T03:23:00.502Z,23.80
2023-01-21T03:24:00.486Z,23.40
2023-01-21T03:25:00.450Z,25.00
2023-01-21T03:26:00.452Z,27.00
2023-01-21T03:27:00.426Z,26.00
2023-01-21T03:28:00.427Z,27.00
2023-01-21T03:29:00.397Z,27.10
2023-01-21T03:30:00.410Z,28.00
2023-01-21T03:31:00.442Z,27.40
2023-01-21T03:32:00.372Z,26.10
2023-01-21T03:33:00.365Z,27.50
2023-01-21T03:34:00.371Z,27.30
2023-01-21T03:35:00.327Z,26.60
2023-01-21T03:36:00.312Z,26.60
2023-01-21T03:37:00.296Z,27.90
2023-01-21T03:38:00.302Z,27.60
2023-01-21T03:39:00.281Z,27.40
2023-01-21T03:40:00.259Z,30.20
2023-01-21T03:41:00.259Z,30.60
2023-01-21T03:42:00.245Z,26.00
2023-01-21T03:43:00.251Z,29.00
2023-01-21T03:44:00.222Z,27.20
2023-01-21T03:45:00.244Z,29.60
2023-01-21T03:46:00.273Z,29.30
2023-01-21T03:47:00.182Z,28.00
2023-01-21T03:48:00.181Z,29.20
2023-01-21T03:49:00.158Z,25.40
2023-01-21T03:50:00.161Z,28.40
2023-01-21T03:51:00.165Z,28.50
2023-01-21T03:52:00.127Z,29.40
2023-01-21T03:53:00.120Z,29.90
2023-01-21T03:54:00.122Z,30.20
2023-01-21T03:55:00.138Z,29.50
2023-01-21T03:56:00.097Z,28.70
2023-01-21T03:57:00.087Z,31.10
2023-01-21T03:58:00.104Z,32.60
2023-01-21T03:59:00.034Z,31.90
2023-01-21T04:00:00.026Z,31.10
2023-01-21T04:01:00.065Z,30.70
2023-01-21T04:02:00.081Z,32.30
2023-01-21T04:02:59.986Z,30.80
2023-01-21T04:03:59.983Z,32.30
2023-01-21T04:04:59.960Z,33.10
2023-01-21T04:05:59.943Z,35.60
2023-01-21T04:06:59.933Z,33.10
2023-01-21T04:07:59.926Z,31.80
2023-01-21T04:08:59.922Z,32.10
2023-01-21T04:09:59.897Z,32.40
2023-01-21T04:10:59.889Z,34.60
2023-01-21T04:11:59.873Z,32.90
2023-01-21T04:12:59.865Z,31.00
2023-01-21T04:13:59.860Z,35.80
2023-01-21T04:14:59.835Z,35.30
2023-01-21T04:15:59.830Z,33.50
2023-01-21T04:16:59.822Z,33.40
2023-01-21T04:17:59.837Z,34.70
2023-01-21T04:18:59.802Z,36.20
2023-01-21T04:19:59.777Z,34.10
2023-01-21T04:20:59.759Z,36.90
2023-01-21T04:21:59.749Z,33.70
2023-01-21T04:22:59.739Z,36.00
2023-01-21T04:23:59.737Z,36.30
2023-01-21T04:24:59.717Z,35.40
2023-01-21T04:25:59.710Z,35.10
2023-01-21T04:26:59.699Z,34.80
2023-01-21T04:27:59.673Z,34.40
2023-01-21T04:28:59.683Z,34.60
2023-01-21T04:29:59.650Z,36.30
2023-01-21T04:30:59.731Z,36.20
2023-01-21T04:31:59.645Z,36.30
2023-01-21T04:32:59.614Z,37.20
2023-01-21T04:33:59.638Z,39.50
2023-01-21T04:34:59.590Z,37.00
2023-01-21T04:35:59.599Z,41.10
2023-01-21T04:36:59.576Z,40.50
2023-01-21T04:37:59.565Z,43.60
2023-01-21T04:38:59.552Z,41.50
2023-01-21T04:39:59.530Z,44.20
2023-01-21T04:40:59.519Z,40.10
2023-01-21T04:41:59.499Z,42.00
2023-01-21T04:42:59.492Z,43.50
2023-01-21T04:43:59.498Z,45.60
2023-01-21T04:44:59.471Z,42.90
2023-01-21T04:45:59.570Z,45.90
2023-01-21T04:46:59.440Z,45.00
2023-01-21T04:47:59.429Z,50.00
2023-01-21T04:48:59.434Z,46.60
2023-01-21T04:49:59.426Z,48.50
2023-01-21T04:50:59.436Z,48.60
2023-01-21T04:51:59.375Z,45.40
2023-01-21T04:52:59.377Z,46.10
2023-01-21T04:53:59.374Z,46.40
2023-01-21T04:54:59.339Z,43.40
2023-01-21T04:55:59.337Z,44.30
2023-01-21T04:56:59.319Z,48.90
2023-01-21T04:57:59.307Z,45.50
2023-01-21T04:58:59.319Z,45.60
2023-01-21T04:59:59.280Z,44.10
2023-01-21T05:00:59.280Z,45.60
2023-01-21T05:01:59.284Z,44.20
2023-01-21T05:02:59.247Z,45.70
2023-01-21T05:03:59.248Z,46.90
2023-01-21T05:04:59.218Z,42.30
2023-01-21T05:05:59.230Z,46.00
2023-01-21T05:06:59.202Z,43.50
2023-01-21T05:07:59.192Z,44.50
2023-01-21T05:08:59.191Z,47.10
2023-01-21T05:09:59.163Z,44.40
2023-01-21T05:10:59.147Z,48.00
2023-01-21T05:11:59.132Z,43.60
2023-01-21T05:12:59.121Z,48.80
2023-01-21T05:13:59.132Z,43.70
2023-01-21T05:14:59.103Z,45.70
2023-01-21T05:15:59.132Z,46.70
2023-01-21T05:16:59.237Z,45.90
2023-01-21T05:17:59.061Z,43.80
2023-01-21T05:18:59.069Z,46.20
2023-01-21T05:19:59.057Z,48.90
2023-01-21T05:20:59.031Z,45.60
2023-01-21T05:21:59.027Z,46.70
2023-01-21T05:22:59.027Z,44.60
2023-01-21T05:23:59.001Z,48.30
2023-01-21T05:24:58.979Z,48.90
2023-01-21T05:25:58.966Z,49.40
2023-01-21T05:26:58.955Z,48.80
2023-01-21T05:27:58.938Z,48.60
2023-01-21T05:28:58.954Z,47.60
2023-01-21T05:29:58.925Z,48.80
2023-01-21T05:30:58.979Z,48.50
2023-01-21T05:31:58.972Z,50.50
2023-01-21T05:32:58.875Z,48.00
2023-01-21T05:33:58.887Z,50.40
2023-01-21T05:34:58.851Z,49.80
2023-01-21T05:35:58.836Z,48.60
2023-01-21T05:36:58.828Z,51.00
2023-01-21T05:38:00.386Z,48.20
2023-01-21T05:38:58.821Z,51.80
2023-01-21T05:39:58.795Z,52.30
2023-01-21T05:40:58.781Z,47.70
2023-01-21T05:41:58.760Z,48.80
2023-01-21T05:42:58.758Z,54.80
2023-01-21T05:43:58.757Z,51.80
2023-01-21T05:44:58.726Z,52.40
2023-01-21T05:45:58.741Z,53.90
2023-01-21T05:46:58.700Z,50.70
2023-01-21T05:47:58.687Z,53.40
2023-01-21T05:48:58.680Z,52.10
2023-01-21T05:49:58.679Z,51.20
2023-01-21T05:50:58.740Z,52.70
2023-01-21T05:51:58.651Z,48.90
2023-01-21T05:52:58.633Z,49.60
2023-01-21T05:53:58.638Z,51.70
2023-01-21T05:55:02.203Z,50.60
2023-01-21T05:55:58.594Z,53.20
2023-01-21T05:56:58.576Z,53.80
2023-01-21T05:57:58.565Z,55.20
2023-01-21T05:58:58.553Z,54.20
2023-01-21T05:59:58.585Z,54.40
2023-01-21T06:00:58.529Z,54.60
2023-01-21T06:01:58.521Z,53.40
2023-01-21T06:02:58.506Z,52.30
2023-01-21T06:03:58.545Z,55.30
2023-01-21T06:04:58.515Z,53.70
2023-01-21T06:05:58.474Z,57.00
2023-01-21T06:06:58.457Z,57.70
2023-01-21T06:07:58.446Z,57.40
2023-01-21T06:08:58.431Z,55.90
2023-01-21T06:09:58.462Z,56.60
2023-01-21T06:10:58.405Z,54.50
2023-01-21T06:11:58.393Z,55.00
2023-01-21T06:12:58.383Z,57.90
2023-01-21T06:13:58.378Z,55.30
2023-01-21T06:14:58.369Z,58.80
2023-01-21T06:15:58.427Z,55.60
2023-01-21T06:16:58.333Z,52.10
2023-01-21T06:17:58.318Z,54.60
2023-01-21T06:18:58.312Z,48.80
2023-01-21T06:19:58.315Z,53.90
2023-01-21T06:20:58.286Z,50.40
2023-01-21T06:21:58.273Z,51.90
2023-01-21T06:22:58.260Z,53.40
2023-01-21T06:23:58.252Z,53.90
2023-01-21T06:24:58.255Z,56.10
2023-01-21T06:25:58.236Z,52.00
2023-01-21T06:26:58.214Z,50.90
2023-01-21T06:27:58.205Z,50.20
2023-01-21T06:28:58.195Z,57.00
2023-01-21T06:29:58.190Z,54.30
2023-01-21T06:30:58.319Z,52.60
2023-01-21T06:31:58.285Z,54.30
2023-01-21T06:32:58.142Z,53.70
2023-01-21T06:33:58.145Z,53.20
2023-01-21T06:34:58.134Z,54.00
2023-01-21T06:35:58.108Z,50.90
2023-01-21T06:36:58.088Z,55.40
2023-01-21T06:37:58.079Z,54.70
2023-01-21T06:38:58.068Z,55.20
2023-01-21T06:39:58.070Z,52.00
2023-01-21T06:40:58.037Z,55.20
2023-01-21T06:41:58.056Z,52.40
2023-01-21T06:42:58.017Z,50.80
2023-01-21T06:43:58.002Z,53.80
2023-01-21T06:44:58.007Z,54.40
2023-01-21T06:45:58.098Z,54.70
2023-01-21T06:47:01.722Z,53.30
2023-01-21T06:47:57.958Z,55.10
2023-01-21T06:48:57.941Z,54.20
2023-01-21T06:49:57.928Z,53.40
2023-01-21T06:50:57.984Z,52.60
2023-01-21T06:51:57.903Z,53.70
2023-01-21T06:52:57.887Z,50.80
2023-01-21T06:53:57.875Z,52.50
2023-01-21T06:54:57.862Z,56.40
2023-01-21T06:55:57.870Z,52.30
2023-01-21T06:56:57.843Z,52.00
2023-01-21T06:57:57.847Z,54.80
2023-01-21T06:58:57.821Z,57.80
2023-01-21T06:59:57.802Z,55.50
2023-01-21T07:00:57.809Z,55.50
2023-01-21T07:01:57.843Z,54.10
2023-01-21T07:02:57.775Z,56.60
2023-01-21T07:03:57.765Z,55.80
2023-01-21T07:04:59.165Z,57.50
2023-01-21T07:05:57.773Z,56.30
2023-01-21T07:06:57.720Z,55.40
2023-01-21T07:07:57.709Z,59.20
2023-01-21T07:08:57.694Z,56.60
2023-01-21T07:09:57.681Z,58.70
2023-01-21T07:10:57.683Z,60.00
2023-01-21T07:11:57.657Z,60.10
2023-01-21T07:12:57.647Z,59.30
2023-01-21T07:13:57.651Z,58.70
2023-01-21T07:14:57.622Z,56.50
2023-01-21T07:15:57.645Z,58.90
2023-01-21T07:16:57.593Z,58.90
2023-01-21T07:17:57.587Z,58.90
2023-01-21T07:18:57.572Z,61.00
2023-01-21T07:19:57.560Z,61.80
2023-01-21T07:20:57.561Z,60.70
2023-01-21T07:21:57.536Z,60.60
2023-01-21T07:22:57.522Z,58.90
2023-01-21T07:23:57.512Z,60.10
2023-01-21T07:24:57.499Z,60.60
2023-01-21T07:25:57.500Z,55.60
2023-01-21T07:26:57.467Z,54.00
2023-01-21T07:27:57.483Z,56.60
2023-01-21T07:28:57.455Z,57.20
2023-01-21T07:29:57.476Z,54.30
2023-01-21T07:30:57.501Z,54.60
2023-01-21T07:31:57.496Z,53.00
2023-01-21T07:32:57.405Z,58.90
2023-01-21T07:33:57.397Z,52.90
2023-01-21T07:34:57.380Z,51.90
2023-01-21T07:35:57.374Z,53.20
2023-01-21T07:36:57.356Z,53.20
2023-01-21T07:37:57.338Z,54.10
2023-01-21T07:38:57.328Z,49.60
2023-01-21T07:39:57.316Z,54.20
2023-01-21T07:40:57.311Z,53.00
2023-01-21T07:41:57.287Z,52.00
2023-01-21T07:42:57.289Z,51.60
2023-01-21T07:43:57.265Z,52.70
2023-01-21T07:44:57.262Z,49.10
2023-01-21T07:45:59.923Z,49.00
2023-01-21T07:46:57.229Z,50.10
2023-01-21T07:47:57.216Z,49.90
2023-01-21T07:48:57.209Z,50.30
2023-01-21T07:49:57.185Z,47.70
2023-01-21T07:50:57.225Z,47.80
2023-01-21T07:51:57.167Z,48.60
2023-01-21T07:52:57.153Z,50.20
2023-01-21T07:53:57.142Z,47.80
2023-01-21T07:54:57.128Z,47.90
2023-01-21T07:55:57.148Z,48.90
2023-01-21T07:56:57.103Z,49.90
2023-01-21T07:57:57.091Z,53.50
2023-01-21T07:58:57.084Z,52.10
2023-01-21T07:59:57.069Z,50.90
2023-01-21T08:00:57.075Z,59.00
2023-01-21T08:01:57.196Z,51.60
2023-01-21T08:02:57.085Z,51.90
2023-01-21T08:03:57.020Z,47.70
2023-01-21T08:04:57.011Z,49.40
2023-01-21T08:05:57.013Z,48.40
2023-01-21T08:06:57.104Z,45.30
2023-01-21T08:07:56.971Z,44.10
2023-01-21T08:08:56.953Z,45.30
2023-01-21T08:09:56.943Z,44.50
2023-01-21T08:10:56.927Z,49.20
2023-01-21T08:11:56.947Z,46.00
2023-01-21T08:12:56.915Z,46.40
2023-01-21T08:13:56.892Z,44.70
2023-01-21T08:14:56.900Z,43.80
2023-01-21T08:15:56.963Z,45.20
2023-01-21T08:16:56.872Z,47.50
2023-01-21T08:17:56.880Z,43.80
2023-01-21T08:18:56.835Z,41.90
2023-01-21T08:19:56.825Z,41.20
2023-01-21T08:20:56.823Z,41.00
2023-01-21T08:21:56.814Z,43.30
2023-01-21T08:22:56.787Z,40.80
2023-01-21T08:23:56.770Z,39.80
2023-01-21T08:24:56.759Z,40.20
2023-01-21T08:25:56.744Z,40.20
2023-01-21T08:26:56.752Z,36.50
2023-01-21T08:27:56.721Z,38.90
2023-01-21T08:28:56.705Z,38.70
2023-01-21T08:29:56.699Z,38.30
2023-01-21T08:30:56.692Z,36.80
2023-01-21T08:31:56.758Z,38.00
2023-01-21T08:32:56.655Z,35.40
2023-01-21T08:33:56.668Z,35.70
2023-01-21T08:34:56.639Z,40.00
2023-01-21T08:35:56.623Z,36.30
2023-01-21T08:36:56.628Z,36.50
2023-01-21T08:37:56.603Z,39.70
2023-01-21T08:38:56.583Z,39.30
2023-01-21T08:39:56.571Z,39.90
2023-01-21T08:40:56.552Z,39.40
2023-01-21T08:41:56.558Z,37.30
2023-01-21T08:42:56.534Z,36.50
2023-01-21T08:43:56.523Z,37.20
2023-01-21T08:44:56.506Z,35.80
2023-01-21T08:45:56.569Z,36.40
2023-01-21T08:46:56.493Z,36.40
2023-01-21T08:47:56.475Z,36.50
2023-01-21T08:48:56.456Z,35.70
2023-01-21T08:49:56.467Z,34.40
2023-01-21T08:50:56.501Z,35.10
2023-01-21T08:51:56.436Z,34.40
2023-01-21T08:52:56.411Z,36.00
2023-01-21T08:53:56.403Z,34.10
2023-01-21T08:54:56.386Z,32.60
2023-01-21T08:55:56.366Z,32.30
2023-01-21T08:56:56.366Z,34.40
2023-01-21T08:57:56.339Z,34.40
2023-01-21T08:58:56.329Z,34.50
2023-01-21T08:59:56.320Z,35.40
2023-01-21T09:00:56.335Z,30.90
2023-01-21T09:01:56.391Z,33.10
2023-01-21T09:02:56.299Z,32.10
2023-01-21T09:03:56.271Z,33.90
2023-01-21T09:04:56.250Z,32.40
2023-01-21T09:05:56.265Z,34.20
2023-01-21T09:06:56.242Z,30.80
2023-01-21T09:07:58.153Z,33.30
2023-01-21T09:08:56.207Z,31.90
2023-01-21T09:09:56.195Z,34.00
2023-01-21T09:10:56.182Z,32.40
2023-01-21T09:11:56.177Z,33.10
2023-01-21T09:12:56.153Z,31.70
2023-01-21T09:13:56.139Z,32.70
2023-01-21T09:14:56.126Z,33.30
2023-01-21T09:15:56.112Z,32.50
2023-01-21T09:16:56.116Z,34.70
2023-01-21T09:17:56.087Z,34.20
2023-01-21T09:18:56.076Z,34.10
2023-01-21T09:19:56.067Z,34.20
2023-01-21T09:20:56.048Z,38.00
2023-01-21T09:21:56.077Z,36.70
2023-01-21T09:22:56.029Z,34.90
2023-01-21T09:23:56.018Z,35.50
2023-01-21T09:24:55.996Z,36.40
2023-01-21T09:25:55.985Z,37.50
2023-01-21T09:26:56.000Z,35.60
2023-01-21T09:27:55.972Z,35.60
2023-01-21T09:28:55.952Z,36.40
2023-01-21T09:29:55.945Z,39.50
2023-01-21T09:30:55.979Z,36.10
2023-01-21T09:31:55.974Z,36.40
2023-01-21T09:32:55.925Z,35.20
2023-01-21T09:33:55.888Z,37.70
2023-01-21T09:34:55.878Z,37.20
2023-01-21T09:35:55.861Z,40.30
2023-01-21T09:36:55.850Z,40.40
2023-01-21T09:37:55.875Z,39.40
2023-01-21T09:38:55.825Z,38.60
2023-01-21T09:39:55.829Z,38.60
2023-01-21T09:40:55.798Z,37.40
2023-01-21T09:41:55.790Z,38.80
2023-01-21T09:42:55.789Z,39.60
2023-01-21T09:43:55.759Z,38.80
2023-01-21T09:44:55.777Z,40.60
2023-01-21T09:45:55.735Z,38.10
2023-01-21T09:46:55.727Z,36.20
2023-01-21T09:47:55.732Z,40.70
2023-01-21T09:48:55.698Z,38.20
2023-01-21T09:49:55.698Z,36.40
2023-01-21T09:50:55.775Z,37.10
2023-01-21T09:51:55.665Z,35.90
2023-01-21T09:52:55.665Z,36.20
2023-01-21T09:53:55.675Z,34.90
2023-01-21T09:54:55.627Z,36.90
2023-01-21T09:55:55.619Z,35.70
2023-01-21T09:56:55.611Z,33.60
2023-01-21T09:57:55.608Z,35.50
2023-01-21T09:58:55.572Z,36.60
2023-01-21T09:59:55.559Z,35.50
2023-01-21T10:00:55.634Z,34.70
2023-01-21T10:01:55.539Z,35.10
2023-01-21T10:02:55.534Z,34.90
2023-01-21T10:03:55.516Z,37.10
2023-01-21T10:04:55.508Z,35.90
2023-01-21T10:05:55.486Z,36.00
2023-01-21T10:06:55.483Z,35.00
2023-01-21T10:07:55.472Z,36.80
2023-01-21T10:08:55.446Z,32.20
2023-01-21T10:09:55.464Z,32.90
2023-01-21T10:10:55.432Z,36.60
2023-01-21T10:11:55.421Z,35.00
2023-01-21T10:12:55.417Z,37.60
2023-01-21T10:13:55.419Z,36.70
2023-01-21T10:14:55.423Z,34.50
2023-01-21T10:15:55.392Z,37.40
2023-01-21T10:16:55.462Z,39.80
2023-01-21T10:17:55.403Z,35.10
2023-01-21T10:18:55.350Z,35.80
2023-01-21T10:19:55.320Z,37.50
2023-01-21T10:20:55.302Z,37.40
2023-01-21T10:21:55.285Z,36.20
2023-01-21T10:22:55.295Z,36.50
2023-01-21T10:23:55.259Z,37.90
2023-01-21T10:24:55.247Z,38.00
2023-01-21T10:25:55.260Z,36.20
2023-01-21T10:26:55.224Z,36.40
2023-01-21T10:27:55.227Z,35.70
2023-01-21T10:28:55.198Z,35.90
2023-01-21T10:29:55.183Z,34.70
2023-01-21T10:30:55.291Z,37.10
2023-01-21T10:31:55.221Z,36.00
2023-01-21T10:32:55.168Z,36.20
2023-01-21T10:33:55.131Z,35.50
2023-01-21T10:34:55.120Z,36.50
2023-01-21T10:35:55.110Z,32.10
2023-01-21T10:36:55.109Z,29.90
2023-01-21T10:37:55.101Z,31.70
2023-01-21T10:38:55.072Z,29.80
2023-01-21T10:39:55.058Z,31.70
2023-01-21T10:40:55.043Z,30.00
2023-01-21T10:41:55.072Z,29.00
2023-01-21T10:42:55.023Z,31.30
2023-01-21T10:43:55.062Z,30.90
2023-01-21T10:44:54.997Z,28.60
2023-01-21T10:45:55.021Z,30.50
2023-01-21T10:46:54.986Z,30.40
2023-01-21T10:47:54.969Z,28.90
2023-01-21T10:48:54.957Z,28.40
2023-01-21T10:49:54.937Z,30.30
2023-01-21T10:50:55.005Z,28.80
2023-01-21T10:51:54.913Z,28.80
2023-01-21T10:52:54.903Z,26.40
2023-01-21T10:53:54.910Z,24.70
2023-01-21T10:54:54.877Z,24.20
2023-01-21T10:55:54.855Z,24.50
2023-01-21T10:56:54.847Z,25.50
2023-01-21T10:57:54.851Z,23.50
2023-01-21T10:58:54.838Z,23.70
2023-01-21T10:59:54.811Z,23.40
2023-01-21T11:00:54.794Z,22.60
2023-01-21T11:01:54.786Z,23.40
2023-01-21T11:02:54.823Z,20.90
2023-01-21T11:03:54.767Z,23.20
2023-01-21T11:04:54.751Z,26.00
2023-01-21T11:05:54.733Z,24.70
2023-01-21T11:06:54.723Z,21.80
2023-01-21T11:07:54.717Z,21.30
2023-01-21T11:08:54.729Z,23.50
2023-01-21T11:09:54.688Z,21.80
2023-01-21T11:10:54.678Z,20.80
2023-01-21T11:11:54.656Z,22.10
2023-01-21T11:12:54.645Z,20.50
2023-01-21T11:13:54.669Z,18.50
2023-01-21T11:14:54.626Z,19.00
2023-01-21T11:15:54.654Z,20.00
2023-01-21T11:16:54.606Z,17.70
2023-01-21T11:17:54.585Z,21.00
2023-01-21T11:18:54.592Z,18.40
2023-01-21T11:19:54.556Z,19.90
2023-01-21T11:20:54.549Z,20.90
2023-01-21T11:21:54.526Z,20.80
2023-01-21T11:22:54.533Z,20.50
2023-01-21T11:23:54.519Z,20.40
2023-01-21T11:24:54.492Z,19.70
2023-01-21T11:25:54.505Z,18.90
2023-01-21T11:26:54.474Z,18.60
2023-01-21T11:27:54.457Z,19.30
2023-01-21T11:28:54.456Z,22.50
2023-01-21T11:29:54.468Z,22.30
2023-01-21T11:30:54.795Z,22.10
2023-01-21T11:31:54.442Z,23.60
2023-01-21T11:32:54.409Z,22.40
2023-01-21T11:33:54.398Z,21.10
2023-01-21T11:34:54.366Z,18.40
2023-01-21T11:35:54.356Z,19.20
2023-01-21T11:36:54.343Z,18.10
2023-01-21T11:37:54.343Z,18.80
2023-01-21T11:38:54.343Z,19.40
2023-01-21T11:39:54.307Z,19.00
2023-01-21T11:40:54.295Z,17.20
2023-01-21T11:41:54.277Z,16.50
2023-01-21T11:42:54.265Z,17.90
2023-01-21T11:43:54.261Z,18.00
2023-01-21T11:44:54.284Z,18.10
2023-01-21T11:45:54.256Z,16.50
2023-01-21T11:46:54.229Z,16.90
2023-01-21T11:47:54.212Z,17.50
2023-01-21T11:48:54.205Z,16.90
2023-01-21T11:49:54.217Z,17.70
2023-01-21T11:50:54.243Z,15.70
2023-01-21T11:51:54.150Z,16.40
2023-01-21T11:52:54.136Z,17.40
2023-01-21T11:53:54.123Z,15.90
2023-01-21T11:54:54.157Z,19.80
2023-01-21T11:55:54.124Z,16.30
2023-01-21T11:56:54.108Z,17.10
2023-01-21T11:57:54.087Z,15.70
2023-01-21T11:58:54.086Z,15.10
2023-01-21T11:59:54.092Z,15.20
2023-01-21T12:00:54.041Z,13.80
2023-01-21T12:01:54.103Z,16.10
2023-01-21T12:02:54.088Z,15.60
2023-01-21T12:03:54.062Z,15.70
2023-01-21T12:04:54.006Z,16.10
2023-01-21T12:05:53.971Z,16.30
2023-01-21T12:06:53.963Z,14.30
2023-01-21T12:07:53.951Z,13.60
2023-01-21T12:08:53.935Z,15.10
2023-01-21T12:09:53.941Z,15.80
2023-01-21T12:10:53.916Z,14.40
2023-01-21T12:11:53.895Z,15.40
2023-01-21T12:12:53.888Z,14.50
2023-01-21T12:13:53.876Z,13.90
2023-01-21T12:14:53.875Z,17.10
2023-01-21T12:15:53.947Z,17.70
2023-01-21T12:16:53.918Z,15.70
2023-01-21T12:17:53.839Z,15.50
2023-01-21T12:18:53.813Z,15.30
2023-01-21T12:19:53.812Z,16.30
2023-01-21T12:20:53.782Z,15.40
2023-01-21T12:21:53.769Z,16.60
2023-01-21T12:22:53.763Z,15.30
2023-01-21T12:23:54.533Z,14.60
2023-01-21T12:24:53.771Z,15.50
2023-01-21T12:25:53.725Z,16.30
2023-01-21T12:26:53.708Z,15.70
2023-01-21T12:27:53.697Z,15.00
2023-01-21T12:28:53.686Z,15.50
2023-01-21T12:29:53.685Z,16.80
2023-01-21T12:30:53.750Z,14.70
2023-01-21T12:31:53.659Z,14.30
2023-01-21T12:32:53.633Z,14.30
2023-01-21T12:33:53.642Z,14.00
2023-01-21T12:34:53.648Z,14.40
2023-01-21T12:35:53.596Z,15.00
2023-01-21T12:36:53.644Z,13.80
2023-01-21T12:37:53.571Z,17.20
2023-01-21T12:38:53.558Z,15.40
2023-01-21T12:39:53.572Z,14.00
2023-01-21T12:40:53.531Z,16.60
2023-01-21T12:41:53.520Z,15.20
2023-01-21T12:42:53.512Z,14.60
2023-01-21T12:43:53.492Z,13.60
2023-01-21T12:44:53.492Z,15.20
2023-01-21T12:45:53.479Z,15.40
2023-01-21T12:46:53.537Z,15.30
2023-01-21T12:47:53.447Z,15.60
2023-01-21T12:48:53.431Z,15.40
2023-01-21T12:49:53.471Z,17.50
2023-01-21T12:50:53.456Z,13.60
2023-01-21T12:51:53.393Z,13.90